Latest Weather Observations for Deniliquin

IDN60801

Issued at 11:04 pm EDT Sunday 25 January 2015 (issued every 30 minutes, with the page automatically refreshed every 10 minutes)

About weather observations | Map of weather stations | Latest weather observations for NSW | Other Formats
Station Details ID: 074258 Name: DENILIQUIN AIRPORT AWS Lat: -35.56 Lon: 144.95 Height: 94.0 m
Data from the previous 72 hours. | See also: Recent months at Deniliquin
Date/Time
EDT
Temp
°C
App
Temp
°C
Dew
Point
Rel
Hum
%
Delta-T
°C
Wind Press
QNH
hPa
Press
MSL
hPa
Rain
since 9 am
mm
Dir
 
Spd
km/h
Gust
km/h
Spd
kts
Gust
kts
25/11:00pm 17.0 12.0 1.4 35 6.9 SW 17 19 9 10 1011.2 1010.8 0.0
25/10:30pm 16.4 11.5 1.7 37 6.6 WSW 17 20 9 11 1011.2 1010.8 0.0
25/10:00pm 16.9 12.2 1.0 34 7.0 WSW 15 17 8 9 1010.7 1010.2 0.0
25/09:30pm 18.8 13.6 0.4 29 8.1 W 17 32 9 17 1010.4 1009.9 0.0
25/09:00pm 20.0 14.4 -0.1 26 8.9 WSW 19 24 10 13 1010.1 1009.6 0.0
25/08:30pm 21.0 14.8 -0.3 24 9.5 WSW 22 28 12 15 1009.7 1009.2 0.0
25/08:00pm 22.3 15.3 -0.4 22 10.2 WSW 26 33 14 18 1009.4 1008.9 0.0
25/07:30pm 22.9 15.1 -0.6 21 10.6 WSW 30 39 16 21 1009.0 1008.5 0.0
25/07:00pm 24.6 16.9 0.2 20 11.3 WSW 30 41 16 22 1008.5 1008.0 0.0
25/06:30pm 24.4 15.6 -1.4 18 11.6 WSW 35 46 19 25 1008.2 1007.7 0.0
25/06:00pm 25.3 17.1 -0.7 18 11.9 WSW 32 48 17 26 1008.1 1007.6 0.0
25/05:30pm 24.5 16.1 -1.3 18 11.6 WSW 33 48 18 26 1007.9 1007.4 0.0
25/05:00pm 25.7 17.5 -1.2 17 12.3 SW 32 46 17 25 1007.8 1007.3 0.0
25/04:30pm 25.3 17.1 -0.7 18 11.9 WSW 32 46 17 25 1007.9 1007.4 0.0
25/04:00pm 25.0 16.8 -0.9 18 11.8 WSW 32 50 17 27 1007.9 1007.4 0.0
25/03:30pm 25.4 18.1 0.1 19 11.7 SW 28 46 15 25 1008.0 1007.5 0.0
25/03:29pm 25.3 18.1 0.7 20 11.5 WSW 28 46 15 25 1007.9 1007.4 0.0
25/03:00pm 24.8 16.8 0.3 20 11.4 WSW 32 46 17 25 1008.1 1007.6 0.0
25/02:30pm 24.2 17.2 1.8 23 10.6 WSW 28 48 15 26 1008.3 1007.8 0.0
25/02:25pm 24.3 16.8 1.2 22 10.9 WSW 30 48 16 26 1008.4 1007.9 0.0
25/02:00pm 24.2 17.2 1.8 23 10.7 WSW 28 41 15 22 1008.2 1007.7 0.0
25/01:30pm 23.6 16.8 3.0 26 10.0 WSW 28 43 15 23 1008.3 1007.8 0.0
25/01:00pm 23.3 16.4 4.8 30 9.3 WSW 30 44 16 24 1008.3 1007.8 0.0
25/12:49pm 22.8 15.8 4.3 30 9.1 WSW 30 46 16 25 1008.3 1007.8 0.0
25/12:30pm 22.7 16.2 4.7 31 8.9 WSW 28 39 15 21 1008.4 1007.9 0.0
25/12:00pm 22.0 15.5 4.6 32 8.6 WSW 28 43 15 23 1008.5 1008.0 0.0
25/11:30am 22.1 15.8 5.5 34 8.3 WSW 28 41 15 22 1008.3 1007.8 0.0
25/11:00am 21.6 14.2 4.2 32 8.5 WSW 32 41 17 22 1008.4 1007.9 0.0
25/10:30am 20.5 13.4 6.4 40 7.1 WSW 33 46 18 25 1008.3 1007.8 0.0
25/10:00am 20.0 13.1 7.1 43 6.6 WSW 33 43 18 23 1008.1 1007.6 0.0
25/09:30am 19.8 13.2 7.9 46 6.2 WSW 32 43 17 23 1008.0 1007.5 0.0
25/09:00am 19.0 13.1 8.9 52 5.3 WSW 30 37 16 20 1007.9 1007.4 0.0
25/08:30am 18.2 12.0 9.5 57 4.6 WSW 32 41 17 22 1007.6 1007.1 0.0
25/08:00am 17.6 12.3 10.0 61 4.1 WSW 28 37 15 20 1007.3 1006.8 0.0
25/07:30am 16.3 13.6 9.0 62 3.8 W 13 22 7 12 1006.9 1006.4 0.0
25/07:00am 14.9 12.1 8.4 65 3.3 W 13 15 7 8 1006.5 1006.0 0.0
25/06:30am 14.1 11.1 7.9 66 3.1 W 13 15 7 8 1006.1 1005.6 0.0
25/06:00am 14.4 11.8 7.7 64 3.3 W 11 13 6 7 1005.7 1005.2 0.0
25/05:30am 15.0 12.0 7.8 62 3.6 W 13 17 7 9 1005.4 1004.9 0.0
25/05:00am 15.7 12.7 7.7 59 4.0 W 13 17 7 9 1005.0 1004.5 0.0
25/04:30am 15.9 13.6 7.4 57 4.2 WNW 9 11 5 6 1004.6 1004.1 0.0
25/04:00am 17.0 13.8 6.8 51 5.1 WSW 13 17 7 9 1004.9 1004.4 0.0
25/03:30am 17.8 13.8 6.7 48 5.5 WSW 17 20 9 11 1004.9 1004.4 0.0
25/03:00am 18.6 13.6 6.4 45 6.1 WSW 22 28 12 15 1004.6 1004.1 0.0
25/02:30am 19.3 13.5 6.1 42 6.6 WSW 26 35 14 19 1004.5 1004.0 0.0
25/02:00am 19.7 14.6 6.1 41 6.8 WSW 22 33 12 18 1004.2 1003.8 0.0
25/01:30am 20.3 15.1 5.5 38 7.3 WSW 22 30 12 16 1004.1 1003.7 0.0
25/01:00am 21.2 15.6 5.5 36 7.9 WSW 24 33 13 18 1004.1 1003.7 0.0
25/12:30am 21.5 16.7 5.4 35 8.0 WSW 20 24 11 13 1004.0 1003.6 0.0
25/12:00am 22.6 16.6 5.1 32 8.8 WSW 26 43 14 23 1003.9 1003.5 0.0
 
Date/Time
EDT
Temp
°C
App
Temp
°C
Dew
Point
Rel
Hum
%
Delta-T
°C
Wind Press
QNH
hPa
Press
MSL
hPa
Rain
since 9 am
mm
Dir
 
Spd
km/h
Gust
km/h
Spd
kts
Gust
kts
24/11:59pm 22.4 16.7 4.9 32 8.7 WSW 24 43 13 23 1003.9 1003.5 0.0
24/11:30pm 19.8 16.1 4.7 37 7.3 SW 13 15 7 8 1003.6 1003.2 0.0
24/11:00pm 20.6 16.5 4.6 35 7.8 SW 15 15 8 8 1003.7 1003.3 0.0
24/10:30pm 20.9 17.1 4.0 33 8.2 SW 13 17 7 9 1003.5 1003.1 0.0
24/10:00pm 22.0 18.1 3.6 30 8.9 WSW 13 15 7 8 1003.3 1002.9 0.0
24/09:30pm 24.3 19.9 2.5 24 10.5 WSW 15 19 8 10 1002.9 1002.5 0.0
24/09:00pm 27.3 21.5 2.4 20 12.3 SW 22 28 12 15 1002.3 1001.9 0.0
24/08:30pm 29.2 24.1 6.0 23 12.3 WSW 22 30 12 16 1001.9 1001.5 0.0
24/08:00pm 30.4 26.2 9.8 28 11.7 W 22 32 12 17 1001.5 1001.0 0.0
24/07:30pm 31.4 27.2 9.6 26 12.4 WNW 22 32 12 17 1001.2 1000.7 0.0
24/07:00pm 32.0 28.3 10.1 26 12.6 WNW 20 26 11 14 1001.0 1000.5 0.0
24/06:30pm 32.2 28.7 10.8 27 12.4 NW 20 30 11 16 1000.9 1000.4 0.0
24/06:00pm 32.4 30.3 11.0 27 12.5 W 13 19 7 10 1001.2 1000.7 0.0
24/05:30pm 32.4 29.1 11.6 28 12.2 WNW 20 30 11 16 1001.4 1000.9 0.0
24/05:00pm 32.6 29.8 11.2 27 12.6 WNW 17 24 9 13 1001.6 1001.1 0.0
24/04:30pm 31.8 28.2 10.5 27 12.3 NW 20 32 11 17 1002.1 1001.7 0.0
24/04:00pm 32.2 28.6 11.9 29 12.0 WNW 22 33 12 18 1002.5 1002.1 0.0
24/03:30pm 31.8 30.4 12.1 30 11.6 N 11 24 6 13 1003.0 1002.6 0.0
24/03:00pm 30.9 28.2 10.3 28 11.8 WNW 15 24 8 13 1003.5 1003.1 0.0
24/02:30pm 30.1 29.2 12.5 34 10.4 NE 9 17 5 9 1003.9 1003.5 0.0
24/02:00pm 29.9 28.6 9.9 29 11.4 S 7 13 4 7 1004.2 1003.8 0.0
24/01:30pm 29.2 27.7 9.3 29 11.1 WNW 7 11 4 6 1004.7 1004.2 0.0
24/01:00pm 27.9 26.7 11.5 36 9.5 WSW 9 15 5 8 1004.8 1004.3 0.0
24/12:30pm 26.7 26.1 11.6 39 8.7 WSW 6 13 3 7 1005.2 1004.7 0.0
24/12:00pm 24.1 23.3 13.0 50 6.5 SW 9 17 5 9 1005.7 1005.2 0.0
24/11:30am 22.9 22.2 13.1 54 5.7 WSW 9 13 5 7 1006.0 1005.5 0.0
24/11:00am 22.2 21.8 13.0 56 5.3 NNW 7 13 4 7 1006.2 1005.7 0.0
24/10:30am 21.4 20.6 12.8 58 4.9 NW 9 13 5 7 1006.3 1005.8 0.0
24/10:00am 20.1 18.7 12.3 61 4.4 NNW 11 13 6 7 1006.5 1006.0 0.0
24/09:30am 19.7 19.2 12.2 62 4.2 N 6 9 3 5 1006.2 1005.7 0.0
24/09:00am 19.2 18.6 11.7 62 4.2 ENE 6 9 3 5 1006.3 1005.8 0.0
24/08:30am 18.7 17.9 11.8 64 3.8 SW 7 13 4 7 1005.5 1005.0 0.0
24/08:00am 18.1 15.0 11.7 66 3.5 SSW 19 24 10 13 1005.2 1004.7 0.0
24/07:30am 18.0 15.3 11.8 67 3.4 SW 17 22 9 12 1005.2 1004.7 0.0
24/07:00am 17.2 14.9 11.7 70 3.0 SSW 15 20 8 11 1004.9 1004.4 0.0
24/06:30am 16.8 14.9 11.7 72 2.8 SW 13 17 7 9 1004.8 1004.3 0.0
24/06:00am 16.8 15.3 11.9 73 2.7 SW 11 17 6 9 1005.0 1004.5 0.0
24/05:30am 17.2 15.5 12.3 73 2.7 SW 13 17 7 9 1004.6 1004.1 0.0
24/05:00am 17.4 15.7 12.5 73 2.7 SW 13 17 7 9 1004.5 1004.0 0.0
24/04:30am 17.2 15.6 12.9 76 2.4 WSW 13 17 7 9 1004.3 1003.9 0.0
24/04:00am 17.6 17.2 13.1 75 2.5 SW 7 9 4 5 1004.2 1003.8 0.0
24/03:30am 18.3 18.3 13.6 74 2.7 SW 6 11 3 6 1004.1 1003.7 0.0
24/03:00am 19.0 18.4 13.6 71 3.1 SSE 9 13 5 7 1004.2 1003.8 0.0
24/02:30am 19.5 18.6 13.7 69 3.3 S 11 13 6 7 1004.5 1004.0 0.0
24/02:00am 20.3 19.8 13.7 66 3.8 S 9 9 5 5 1004.5 1004.0 0.0
24/01:30am 21.3 20.8 13.7 62 4.4 SSE 9 13 5 7 1004.7 1004.2 0.0
24/01:00am 21.4 20.2 12.8 58 4.9 SE 11 15 6 8 1004.9 1004.4 0.0
24/12:30am 22.6 21.2 12.3 52 5.9 SSW 11 13 6 7 1004.7 1004.2 0.0
24/12:00am 24.4 21.9 11.0 43 7.6 SW 15 19 8 10 1004.8 1004.3 0.0
 
Date/Time
EDT
Temp
°C
App
Temp
°C
Dew
Point
Rel
Hum
%
Delta-T
°C
Wind Press
QNH
hPa
Press
MSL
hPa
Rain
since 9 am
mm
Dir
 
Spd
km/h
Gust
km/h
Spd
kts
Gust
kts
23/11:30pm 25.2 23.3 10.6 40 8.2 WSW 11 15 6 8 1004.9 1004.4 0.0
23/11:00pm 26.4 23.4 10.5 37 9.0 SW 17 19 9 10 1005.0 1004.5 0.0
23/10:30pm 27.2 24.5 10.4 35 9.5 SW 15 19 8 10 1004.7 1004.2 0.0
23/10:00pm 28.4 24.8 10.6 33 10.2 SW 20 24 11 13 1004.2 1003.8 0.0
23/09:30pm 29.4 25.9 11.0 32 10.6 WSW 20 24 11 13 1003.9 1003.5 0.0
23/09:00pm 30.3 26.8 10.8 30 11.3 WSW 20 26 11 14 1003.6 1003.2 0.0
23/08:30pm 31.4 27.5 10.7 28 12.0 SW 22 30 12 16 1003.4 1003.0 0.0
23/08:00pm 32.3 27.7 10.9 27 12.5 WSW 26 35 14 19 1003.1 1002.7 0.0
23/07:30pm 33.1 28.1 11.0 26 12.9 WSW 28 35 15 19 1002.8 1002.4 0.0
23/07:00pm 33.7 27.6 9.7 23 13.8 WSW 32 41 17 22 1002.3 1001.9 0.0
23/06:30pm 34.5 28.2 9.7 22 14.3 SW 33 41 18 22 1001.9 1001.5 0.0
23/06:00pm 35.3 29.4 11.0 23 14.4 WSW 33 43 18 23 1001.8 1001.4 0.0
23/05:30pm 35.9 29.9 10.2 21 15.0 WSW 32 41 17 22 1001.7 1001.2 0.0
23/05:00pm 36.5 31.6 11.3 22 15.1 W 28 37 15 20 1001.6 1001.1 0.0
23/04:30pm 36.4 32.1 11.9 23 14.7 W 26 35 14 19 1001.9 1001.5 0.0
23/04:13pm 36.6 31.9 12.1 23 14.8 W 28 46 15 25 1002.0 1001.6 0.0
23/04:00pm 36.6 31.9 12.1 23 14.8 W 28 43 15 23 1002.1 1001.7 0.0
23/03:34pm 35.9 31.1 11.5 23 14.5 W 28 48 15 26 1002.4 1002.0 0.0
23/03:30pm 37.1 34.1 13.8 25 14.4 WNW 22 39 12 21 1002.3 1001.9 0.0
23/03:00pm 36.8 33.2 12.9 24 14.6 WNW 24 37 13 20 1002.6 1002.2 0.0
23/02:30pm 35.8 32.5 12.7 25 14.0 WNW 22 37 12 20 1002.8 1002.4 0.0
23/02:00pm 36.4 31.7 10.6 21 15.3 NW 26 35 14 19 1003.1 1002.7 0.0
23/01:30pm 34.8 31.0 11.2 24 13.9 NW 22 32 12 17 1003.5 1003.1 0.0
23/01:00pm 36.2 32.4 12.4 24 14.4 NW 24 39 13 21 1003.8 1003.4 0.0
23/12:30pm 35.5 32.5 13.6 26 13.4 WNW 22 33 12 18 1004.2 1003.8 0.0
23/12:00pm 35.0 32.0 13.8 28 13.1 NW 22 33 12 18 1004.6 1004.1 0.0
23/11:30am 34.6 32.2 14.5 30 12.5 NW 20 30 11 16 1005.0 1004.5 0.0
23/11:00am 33.6 31.2 12.6 28 12.6 NW 17 24 9 13 1005.2 1004.7 0.0
23/10:30am 32.7 30.6 14.8 34 11.1 NW 19 26 10 14 1005.7 1005.2 0.0
23/10:00am 31.8 30.2 14.9 36 10.5 NW 17 22 9 12 1005.9 1005.4 0.0
23/09:30am 30.7 28.5 14.3 36 10.0 NW 19 28 10 15 1006.0 1005.5 0.0
23/09:00am 29.2 27.1 14.6 41 8.9 NNW 19 24 10 13 1005.9 1005.4 0.0
23/08:30am 27.8 25.9 14.1 43 8.2 N 17 22 9 12 1005.8 1005.3 0.0
23/08:00am 26.4 25.3 14.2 47 7.3 N 13 19 7 10 1005.8 1005.3 0.0
23/07:30am 24.9 23.9 14.7 53 6.1 N 13 19 7 10 1005.4 1004.9 0.0
23/07:00am 23.5 23.2 14.5 57 5.4 N 9 11 5 6 1005.4 1004.9 0.0
23/06:30am 23.9 23.6 14.3 55 5.7 N 9 13 5 7 1005.4 1004.9 0.0
23/06:00am 24.3 23.1 14.1 53 6.1 NNW 13 15 7 8 1005.2 1004.7 0.0
23/05:30am 25.3 24.0 13.8 49 6.8 N 13 17 7 9 1004.8 1004.3 0.0
23/05:00am 25.4 23.8 13.9 49 6.8 N 15 19 8 10 1004.8 1004.3 0.0
23/04:30am 25.7 24.1 13.9 48 7.0 N 15 20 8 11 1004.7 1004.2 0.0
23/04:00am 26.1 24.1 13.9 47 7.3 N 17 22 9 12 1004.7 1004.2 0.0
23/03:30am 26.1 24.2 14.2 48 7.1 NNE 17 20 9 11 1004.9 1004.4 0.0
23/03:00am 26.2 24.7 14.3 48 7.1 NNE 15 20 8 11 1005.1 1004.6 0.0
23/02:30am 26.6 25.5 14.4 47 7.3 NNE 13 19 7 10 1005.3 1004.8 0.0
23/02:00am 27.2 25.7 14.2 44 7.8 NNE 15 19 8 10 1005.6 1005.1 0.0
23/01:30am 27.9 26.0 14.2 43 8.2 NNE 17 20 9 11 1005.7 1005.2 0.0
23/01:00am 28.3 26.8 14.2 42 8.5 NNE 15 20 8 11 1005.9 1005.4 0.0
23/12:30am 28.8 27.1 13.5 39 9.1 NNE 15 20 8 11 1006.0 1005.5 0.0
23/12:00am 29.0 26.9 13.6 38 9.2 NNE 17 22 9 12 1006.0 1005.5 0.0
 
Date/Time
EDT
Temp
°C
App
Temp
°C
Dew
Point
Rel
Hum
%
Delta-T
°C
Wind Press
QNH
hPa
Press
MSL
hPa
Rain
since 9 am
mm
Dir
 
Spd
km/h
Gust
km/h
Spd
kts
Gust
kts
22/11:30pm 28.9 28.1 13.9 39 9.0 NE 11 13 6 7 1006.1 1005.6 0.0

Other Formats:

Comma delimited format used in spreadsheet applications
http://www.bom.gov.au/fwo/IDN60801/IDN60801.95869.axf

JavaScript Object Notation format (JSON) in row-major order
http://www.bom.gov.au/fwo/IDN60801/IDN60801.95869.json